Birch — E5U2637 — position and weather

sailwx.info

Track history (hours):
 
Tides and Currents Weather Stations Pressure Air Temp Water Temp Dewpoint Dewpoint Depression Visibility Wind Speed Wind Dir Waves Ship Positions

Birch

Last reported at 2018-Jul-15 22:09 UTC. Time now 2018-Jul-21 03:55 UTC.
Position N 28°41' W 013°34'.

Length 180 m; draft 4.1 m.

Type: Cargo ship. MMSI: 518690000.

Date/timePositionNaut miles runAvg speedWind from/ knotsBaromVisibWave heightAir tempDewpointWater temp
2018-Jul-15 22:09N 28°41' W 013°34'1 7.8
2018-Jul-15 21:59N 28°43' W 013°33'4 7.8
2018-Jul-15 21:25N 28°46' W 013°31'3 8.0
2018-Jul-15 21:00N 28°49' W 013°29'4 7.9
2018-Jul-15 20:29N 28°53' W 013°26'4 7.8
2018-Jul-15 19:58N 28°56' W 013°24'4 7.5
2018-Jul-15 19:28N 28°60' W 013°23'3 7.4
2018-Jul-15 18:59N 29°03' W 013°21'  
2018-Jul-12 09:32N 38°54' W 010°06'1 7.2
2018-Jul-12 09:23N 38°55' W 010°05'3 7.2
2018-Jul-12 09:00N 38°57' W 010°03'4 7.3
2018-Jul-12 08:30N 39°01' W 010°01'4 7.6
2018-Jul-12 08:00N 39°04' W 009°59'4 7.6
2018-Jul-12 07:30N 39°07' W 009°56'4 7.6
2018-Jul-12 06:59N 39°11' W 009°54'11 7.6
2018-Jul-12 05:36N 39°20' W 009°48'1 7.6
2018-Jul-12 05:28N 39°21' W 009°48'115 7.5
2018-Jul-11 14:10N 41°07' W 008°46'2 7.2
2018-Jul-11 13:53N 41°08' W 008°45'3 6.6
2018-Jul-11 13:30N 41°10' W 008°42'1 2.9
2018-Jul-11 13:00N 41°11' W 008°41'0 0.0
2018-Jul-11 12:30N 41°11' W 008°41'0 0.0
2018-Jul-11 11:51N 41°11' W 008°41'0 0.0
2018-Jul-11 11:24N 41°11' W 008°41'0 0.0
2018-Jul-11 11:00N 41°11' W 008°41'0 0.0
2018-Jul-11 10:30N 41°11' W 008°41'0 0.0
2018-Jul-11 10:00N 41°11' W 008°41'0 0.0
2018-Jul-11 09:24N 41°11' W 008°41'0 0.0
2018-Jul-11 09:00N 41°11' W 008°41'0 0.0
2018-Jul-11 08:30N 41°11' W 008°41'0 0.0
2018-Jul-11 07:57N 41°11' W 008°41'0 0.0
2018-Jul-11 07:27N 41°11' W 008°41'0 0.0
2018-Jul-11 06:57N 41°11' W 008°41'0 0.0
2018-Jul-11 06:30N 41°11' W 008°41'0 0.0
2018-Jul-11 06:00N 41°11' W 008°41'0 0.0
2018-Jul-11 05:27N 41°11' W 008°41'0 0.0
2018-Jul-11 05:00N 41°11' W 008°41'0 0.0
2018-Jul-11 04:24N 41°11' W 008°41'0 0.0
2018-Jul-11 04:00N 41°11' W 008°41'0 0.0
2018-Jul-11 03:30N 41°11' W 008°41'0 0.0
2018-Jul-11 02:57N 41°11' W 008°41'0 0.0
2018-Jul-11 02:30N 41°11' W 008°41'0 0.0
2018-Jul-11 02:00N 41°11' W 008°41'0 0.0
2018-Jul-11 01:30N 41°11' W 008°41'0 0.0
2018-Jul-11 00:57N 41°11' W 008°41'0 0.0
2018-Jul-11 00:30N 41°11' W 008°41'0 0.0
2018-Jul-11 00:00N 41°11' W 008°41'0 0.0
2018-Jul-10 23:30N 41°11' W 008°41'0 0.0
2018-Jul-10 22:57N 41°11' W 008°41'0 0.0
2018-Jul-10 22:27N 41°11' W 008°41'0 0.0
2018-Jul-10 22:00N 41°11' W 008°41'0 0.0
2018-Jul-10 21:27N 41°11' W 008°41'0 0.0
2018-Jul-10 20:57N 41°11' W 008°41'0 0.0
2018-Jul-10 20:21N 41°11' W 008°41'0 0.0
2018-Jul-10 20:00N 41°11' W 008°41'0 0.0
2018-Jul-10 19:24N 41°11' W 008°41'0 0.0
2018-Jul-10 18:51N 41°11' W 008°41'0 0.0
2018-Jul-10 18:27N 41°11' W 008°41'0 0.0
2018-Jul-10 17:54N 41°11' W 008°41'0 0.0
2018-Jul-10 17:30N 41°11' W 008°41'0 0.0
2018-Jul-10 17:00N 41°11' W 008°41'0 0.0
2018-Jul-10 16:30N 41°11' W 008°41'0 0.0
2018-Jul-10 15:56N 41°11' W 008°41'0 0.0
2018-Jul-10 15:29N 41°11' W 008°41'0 0.0
2018-Jul-10 14:59N 41°11' W 008°41'0 0.0
2018-Jul-10 14:29N 41°11' W 008°41'0 0.0
2018-Jul-10 13:59N 41°11' W 008°41'0 0.0
2018-Jul-10 13:26N 41°11' W 008°41'0 0.8
2018-Jul-10 12:56N 41°12' W 008°41'0 0.0
2018-Jul-10 12:26N 41°12' W 008°41'0 0.0
2018-Jul-10 11:59N 41°12' W 008°41'0 0.0
2018-Jul-10 11:29N 41°12' W 008°41'0 0.0
2018-Jul-10 09:56N 41°12' W 008°41'0 0.0
2018-Jul-10 07:56N 41°12' W 008°41'0 0.0
2018-Jul-10 07:29N 41°12' W 008°41'0 0.0
2018-Jul-10 06:56N 41°12' W 008°41'0 0.0
2018-Jul-10 06:29N 41°12' W 008°41'0 0.0
2018-Jul-10 05:53N 41°12' W 008°41'0 0.0
2018-Jul-10 05:26N 41°12' W 008°41'0 0.0
2018-Jul-10 04:53N 41°12' W 008°41'0 0.0
2018-Jul-10 04:26N 41°12' W 008°41'0 0.0
2018-Jul-10 03:59N 41°12' W 008°41'0 0.0
2018-Jul-10 03:29N 41°12' W 008°41'0 0.0
2018-Jul-10 02:59N 41°12' W 008°41'0 0.0
2018-Jul-10 02:29N 41°12' W 008°41'0 0.0
2018-Jul-10 01:59N 41°12' W 008°41'0 0.0
2018-Jul-10 01:29N 41°12' W 008°41'0 0.0
2018-Jul-10 00:59N 41°12' W 008°41'0 0.0
2018-Jul-10 00:29N 41°12' W 008°41'0 0.0
2018-Jul-09 23:59N 41°12' W 008°41'0 0.0
2018-Jul-09 23:26N 41°12' W 008°41'0 0.0
2018-Jul-09 22:59N 41°12' W 008°41'0 0.0
2018-Jul-09 22:17N 41°12' W 008°41'0 0.0
2018-Jul-09 21:01N 41°12' W 008°41'0 0.0
2018-Jul-09 20:46N 41°12' W 008°41'0 0.0
2018-Jul-09 20:28N 41°12' W 008°41'0 0.0
2018-Jul-09 19:58N 41°12' W 008°41'0 0.0
2018-Jul-09 18:43N 41°12' W 008°41'0 0.0
2018-Jul-09 18:25N 41°12' W 008°41'0 0.0
2018-Jul-09 17:55N 41°12' W 008°41'0 0.0
2018-Jul-09 17:28N 41°12' W 008°41'0 0.0
2018-Jul-09 16:55N 41°12' W 008°41'0 0.0
2018-Jul-09 16:13N 41°12' W 008°41'0 0.0
2018-Jul-09 15:46N 41°12' W 008°41'0 0.0
2018-Jul-09 15:22N 41°12' W 008°41'0 0.0
2018-Jul-09 14:49N 41°12' W 008°41'0 0.0
2018-Jul-09 14:22N 41°12' W 008°41'0 0.0
2018-Jul-09 13:52N 41°12' W 008°41'0 0.0
2018-Jul-09 13:19N 41°12' W 008°41'0 0.0
2018-Jul-09 12:19N 41°12' W 008°41'0 0.0
2018-Jul-09 11:58N 41°12' W 008°41'0 0.0
2018-Jul-09 11:25N 41°12' W 008°41'0 0.0
2018-Jul-09 10:55N 41°12' W 008°41'0 0.0
2018-Jul-09 10:28N 41°12' W 008°41'0 0.0
2018-Jul-09 09:13N 41°12' W 008°41'0 0.0
2018-Jul-09 08:34N 41°12' W 008°41'0 0.0
2018-Jul-09 08:10N 41°12' W 008°41'0 0.0
2018-Jul-09 07:46N 41°12' W 008°41'0 0.0
2018-Jul-09 07:25N 41°12' W 008°41'0 0.0
2018-Jul-09 06:58N 41°12' W 008°41'0 0.0
2018-Jul-09 06:28N 41°12' W 008°41'0 0.0
2018-Jul-09 05:58N 41°12' W 008°41'0 0.0
2018-Jul-09 05:28N 41°12' W 008°41'0 0.0
2018-Jul-09 04:58N 41°12' W 008°41'0 0.0
2018-Jul-09 04:28N 41°12' W 008°41'0 0.0
2018-Jul-09 03:55N 41°12' W 008°41'0 0.0
2018-Jul-09 03:28N 41°12' W 008°41'0 0.0
2018-Jul-09 02:58N 41°12' W 008°41'0 0.0
2018-Jul-09 02:28N 41°12' W 008°41'0 0.0
2018-Jul-09 01:55N 41°12' W 008°41'0 0.0
2018-Jul-09 01:19N 41°12' W 008°41'0 0.0
2018-Jul-09 00:58N 41°12' W 008°41'0 0.0
2018-Jul-09 00:25N 41°12' W 008°41'0 0.0
2018-Jul-08 23:55N 41°12' W 008°41'0 0.0
2018-Jul-08 23:22N 41°12' W 008°41'0 0.0
2018-Jul-08 22:37N 41°12' W 008°41'0 0.0
2018-Jul-08 22:28N 41°12' W 008°41'0 0.0
2018-Jul-08 21:52N 41°12' W 008°41'0 0.0
2018-Jul-08 21:28N 41°12' W 008°41'0 0.0
2018-Jul-08 20:55N 41°12' W 008°41'0 0.0
2018-Jul-08 20:16N 41°12' W 008°41'0 0.0
2018-Jul-08 19:52N 41°12' W 008°41'0 0.0
2018-Jul-08 19:25N 41°12' W 008°41'0 0.0
2018-Jul-08 18:58N 41°12' W 008°41'0 0.0
2018-Jul-08 18:28N 41°12' W 008°41'0 0.0
2018-Jul-08 17:58N 41°12' W 008°41'0 0.0
2018-Jul-08 17:07N 41°12' W 008°41'0 0.0
2018-Jul-08 16:49N 41°12' W 008°41'0 0.0
2018-Jul-08 16:25N 41°12' W 008°41'0 0.0
2018-Jul-08 15:55N 41°12' W 008°41'0 0.0
2018-Jul-08 15:22N 41°12' W 008°41'0 0.0
2018-Jul-08 14:58N 41°12' W 008°41'0 0.0
2018-Jul-08 14:22N 41°12' W 008°41'0 0.0
2018-Jul-08 13:49N 41°12' W 008°41'0 0.0
2018-Jul-08 13:28N 41°12' W 008°41'0 0.0
2018-Jul-08 13:01N 41°12' W 008°41'0 0.0
2018-Jul-08 12:31N 41°12' W 008°41'0 0.0
2018-Jul-08 11:57N 41°12' W 008°41'0 0.0
2018-Jul-08 11:31N 41°12' W 008°41'0 0.0
2018-Jul-08 10:58N 41°12' W 008°41'0 0.0
2018-Jul-08 10:21N 41°12' W 008°41'0 0.0
2018-Jul-08 10:00N 41°12' W 008°41'0 0.0
2018-Jul-08 09:24N 41°12' W 008°41'0 0.0
2018-Jul-08 08:57N 41°12' W 008°41'0 0.0
2018-Jul-08 08:30N 41°12' W 008°41'0 0.0
2018-Jul-08 08:00N 41°12' W 008°41'0 0.0
2018-Jul-08 07:30N 41°12' W 008°41'0 0.0
2018-Jul-08 07:00N 41°12' W 008°41'0 0.0
2018-Jul-08 06:09N 41°12' W 008°41'0 0.0
2018-Jul-08 06:00N 41°12' W 008°41'0 0.0
2018-Jul-08 05:24N 41°12' W 008°41'0 0.0
2018-Jul-08 05:00N 41°12' W 008°41'0 0.0
2018-Jul-08 04:27N 41°12' W 008°41'0 0.0
2018-Jul-08 03:57N 41°12' W 008°41'0 0.0
2018-Jul-08 03:30N 41°12' W 008°41'0 0.0
2018-Jul-08 02:51N 41°12' W 008°41'0 0.0
2018-Jul-08 02:21N 41°12' W 008°41'0 0.0
2018-Jul-08 01:57N 41°12' W 008°41'0 0.0
2018-Jul-08 01:30N 41°12' W 008°41'0 0.0
2018-Jul-08 01:00N 41°12' W 008°41'0 0.0
2018-Jul-08 00:27N 41°12' W 008°41'0 0.0
2018-Jul-07 23:57N 41°12' W 008°41'0 0.0
2018-Jul-07 23:27N 41°12' W 008°41'0 0.0
2018-Jul-07 22:54N 41°12' W 008°41'0 0.0
2018-Jul-07 22:30N 41°12' W 008°41'0 0.0
2018-Jul-07 22:00N 41°12' W 008°41'0 0.0
2018-Jul-07 21:30N 41°12' W 008°41'0 0.0
2018-Jul-07 21:00N 41°12' W 008°41'0 0.0
2018-Jul-07 20:30N 41°12' W 008°41'0 0.0
2018-Jul-07 20:00N 41°12' W 008°41'0 0.0
2018-Jul-07 17:33N 41°12' W 008°41'0 0.0
2018-Jul-07 17:24N 41°12' W 008°41'0 0.0
2018-Jul-07 17:00N 41°12' W 008°41'0 0.0
2018-Jul-07 16:27N 41°12' W 008°41'0 0.0
2018-Jul-07 16:00N 41°12' W 008°41'0 0.0
2018-Jul-07 15:27N 41°12' W 008°41'0 0.0
2018-Jul-07 14:39N 41°12' W 008°41'0 0.0
2018-Jul-07 14:29N 41°12' W 008°41'0 1.0
2018-Jul-07 14:00N 41°11' W 008°42'3 5.2
2018-Jul-07 13:30N 41°09' W 008°44'1 2.2
2018-Jul-07 13:01N 41°09' W 008°45'1 0.1
2018-Jul-07 03:42N 41°09' W 008°46'0 0.0
2018-Jul-07 03:30N 41°09' W 008°46'0 0.0
2018-Jul-07 02:54N 41°09' W 008°46'0 0.1
2018-Jul-07 02:30N 41°09' W 008°46'0 0.0
2018-Jul-07 01:57N 41°09' W 008°46'0 0.0
2018-Jul-07 00:39N 41°09' W 008°46'0 0.0
2018-Jul-07 00:06N 41°09' W 008°46'0 0.0
2018-Jul-06 23:48N 41°09' W 008°46'0 0.0
2018-Jul-06 23:30N 41°09' W 008°46'0 0.0
2018-Jul-06 23:00N 41°09' W 008°46'0 0.0
2018-Jul-06 22:14N 41°09' W 008°46'0 0.0
2018-Jul-06 20:41N 41°09' W 008°46'0 0.0
2018-Jul-06 13:17N 41°09' W 008°46'0 0.0
2018-Jul-06 12:56N 41°09' W 008°46'0 0.1
2018-Jul-06 11:59N 41°09' W 008°46'0 0.0
2018-Jul-06 11:23N 41°09' W 008°46'0 0.0
2018-Jul-06 10:53N 41°09' W 008°46'1 3.1
2018-Jul-06 10:30N 41°10' W 008°46'  
Track history (hours):
 
Tides and Currents Weather Stations Pressure Air Temp Water Temp Dewpoint Dewpoint Depression Visibility Wind Speed Wind Dir Waves Ship Positions

Birch

Last reported at 2018-Jul-15 22:09 UTC. Time now 2018-Jul-21 03:55 UTC.
Position N 28°41' W 013°34'.

Length 180 m; draft 4.1 m.

Type: Cargo ship. MMSI: 518690000.

Date/timePositionNaut miles runAvg speedWind from/ knotsBaromVisibWave heightAir tempDewpointWater temp
2018-Jul-15 22:09N 28°41' W 013°34'1 7.8
2018-Jul-15 21:59N 28°43' W 013°33'4 7.8
2018-Jul-15 21:25N 28°46' W 013°31'3 8.0
2018-Jul-15 21:00N 28°49' W 013°29'4 7.9
2018-Jul-15 20:29N 28°53' W 013°26'4 7.8
2018-Jul-15 19:58N 28°56' W 013°24'4 7.5
2018-Jul-15 19:28N 28°60' W 013°23'3 7.4
2018-Jul-15 18:59N 29°03' W 013°21'  
2018-Jul-12 09:32N 38°54' W 010°06'1 7.2
2018-Jul-12 09:23N 38°55' W 010°05'3 7.2
2018-Jul-12 09:00N 38°57' W 010°03'4 7.3
2018-Jul-12 08:30N 39°01' W 010°01'4 7.6
2018-Jul-12 08:00N 39°04' W 009°59'4 7.6
2018-Jul-12 07:30N 39°07' W 009°56'4 7.6
2018-Jul-12 06:59N 39°11' W 009°54'11 7.6
2018-Jul-12 05:36N 39°20' W 009°48'1 7.6
2018-Jul-12 05:28N 39°21' W 009°48'115 7.5
2018-Jul-11 14:10N 41°07' W 008°46'2 7.2
2018-Jul-11 13:53N 41°08' W 008°45'3 6.6
2018-Jul-11 13:30N 41°10' W 008°42'1 2.9
2018-Jul-11 13:00N 41°11' W 008°41'0 0.0
2018-Jul-11 12:30N 41°11' W 008°41'0 0.0
2018-Jul-11 11:51N 41°11' W 008°41'0 0.0
2018-Jul-11 11:24N 41°11' W 008°41'0 0.0
2018-Jul-11 11:00N 41°11' W 008°41'0 0.0
2018-Jul-11 10:30N 41°11' W 008°41'0 0.0
2018-Jul-11 10:00N 41°11' W 008°41'0 0.0
2018-Jul-11 09:24N 41°11' W 008°41'0 0.0
2018-Jul-11 09:00N 41°11' W 008°41'0 0.0
2018-Jul-11 08:30N 41°11' W 008°41'0 0.0
2018-Jul-11 07:57N 41°11' W 008°41'0 0.0
2018-Jul-11 07:27N 41°11' W 008°41'0 0.0
2018-Jul-11 06:57N 41°11' W 008°41'0 0.0
2018-Jul-11 06:30N 41°11' W 008°41'0 0.0
2018-Jul-11 06:00N 41°11' W 008°41'0 0.0
2018-Jul-11 05:27N 41°11' W 008°41'0 0.0
2018-Jul-11 05:00N 41°11' W 008°41'0 0.0
2018-Jul-11 04:24N 41°11' W 008°41'0 0.0
2018-Jul-11 04:00N 41°11' W 008°41'0 0.0
2018-Jul-11 03:30N 41°11' W 008°41'0 0.0
2018-Jul-11 02:57N 41°11' W 008°41'0 0.0
2018-Jul-11 02:30N 41°11' W 008°41'0 0.0
2018-Jul-11 02:00N 41°11' W 008°41'0 0.0
2018-Jul-11 01:30N 41°11' W 008°41'0 0.0
2018-Jul-11 00:57N 41°11' W 008°41'0 0.0
2018-Jul-11 00:30N 41°11' W 008°41'0 0.0
2018-Jul-11 00:00N 41°11' W 008°41'0 0.0
2018-Jul-10 23:30N 41°11' W 008°41'0 0.0
2018-Jul-10 22:57N 41°11' W 008°41'0 0.0
2018-Jul-10 22:27N 41°11' W 008°41'0 0.0
2018-Jul-10 22:00N 41°11' W 008°41'0 0.0
2018-Jul-10 21:27N 41°11' W 008°41'0 0.0
2018-Jul-10 20:57N 41°11' W 008°41'0 0.0
2018-Jul-10 20:21N 41°11' W 008°41'0 0.0
2018-Jul-10 20:00N 41°11' W 008°41'0 0.0
2018-Jul-10 19:24N 41°11' W 008°41'0 0.0
2018-Jul-10 18:51N 41°11' W 008°41'0 0.0
2018-Jul-10 18:27N 41°11' W 008°41'0 0.0
2018-Jul-10 17:54N 41°11' W 008°41'0 0.0
2018-Jul-10 17:30N 41°11' W 008°41'0 0.0
2018-Jul-10 17:00N 41°11' W 008°41'0 0.0
2018-Jul-10 16:30N 41°11' W 008°41'0 0.0
2018-Jul-10 15:56N 41°11' W 008°41'0 0.0
2018-Jul-10 15:29N 41°11' W 008°41'0 0.0
2018-Jul-10 14:59N 41°11' W 008°41'0 0.0
2018-Jul-10 14:29N 41°11' W 008°41'0 0.0
2018-Jul-10 13:59N 41°11' W 008°41'0 0.0
2018-Jul-10 13:26N 41°11' W 008°41'0 0.8
2018-Jul-10 12:56N 41°12' W 008°41'0 0.0
2018-Jul-10 12:26N 41°12' W 008°41'0 0.0
2018-Jul-10 11:59N 41°12' W 008°41'0 0.0
2018-Jul-10 11:29N 41°12' W 008°41'0 0.0
2018-Jul-10 09:56N 41°12' W 008°41'0 0.0
2018-Jul-10 07:56N 41°12' W 008°41'0 0.0
2018-Jul-10 07:29N 41°12' W 008°41'0 0.0
2018-Jul-10 06:56N 41°12' W 008°41'0 0.0
2018-Jul-10 06:29N 41°12' W 008°41'0 0.0
2018-Jul-10 05:53N 41°12' W 008°41'0 0.0
2018-Jul-10 05:26N 41°12' W 008°41'0 0.0
2018-Jul-10 04:53N 41°12' W 008°41'0 0.0
2018-Jul-10 04:26N 41°12' W 008°41'0 0.0
2018-Jul-10 03:59N 41°12' W 008°41'0 0.0
2018-Jul-10 03:29N 41°12' W 008°41'0 0.0
2018-Jul-10 02:59N 41°12' W 008°41'0 0.0
2018-Jul-10 02:29N 41°12' W 008°41'0 0.0
2018-Jul-10 01:59N 41°12' W 008°41'0 0.0
2018-Jul-10 01:29N 41°12' W 008°41'0 0.0
2018-Jul-10 00:59N 41°12' W 008°41'0 0.0
2018-Jul-10 00:29N 41°12' W 008°41'0 0.0
2018-Jul-09 23:59N 41°12' W 008°41'0 0.0
2018-Jul-09 23:26N 41°12' W 008°41'0 0.0
2018-Jul-09 22:59N 41°12' W 008°41'0 0.0
2018-Jul-09 22:17N 41°12' W 008°41'0 0.0
2018-Jul-09 21:01N 41°12' W 008°41'0 0.0
2018-Jul-09 20:46N 41°12' W 008°41'0 0.0
2018-Jul-09 20:28N 41°12' W 008°41'0 0.0
2018-Jul-09 19:58N 41°12' W 008°41'0 0.0
2018-Jul-09 18:43N 41°12' W 008°41'0 0.0
2018-Jul-09 18:25N 41°12' W 008°41'0 0.0
2018-Jul-09 17:55N 41°12' W 008°41'0 0.0
2018-Jul-09 17:28N 41°12' W 008°41'0 0.0
2018-Jul-09 16:55N 41°12' W 008°41'0 0.0
2018-Jul-09 16:13N 41°12' W 008°41'0 0.0
2018-Jul-09 15:46N 41°12' W 008°41'0 0.0
2018-Jul-09 15:22N 41°12' W 008°41'0 0.0
2018-Jul-09 14:49N 41°12' W 008°41'0 0.0
2018-Jul-09 14:22N 41°12' W 008°41'0 0.0
2018-Jul-09 13:52N 41°12' W 008°41'0 0.0
2018-Jul-09 13:19N 41°12' W 008°41'0 0.0
2018-Jul-09 12:19N 41°12' W 008°41'0 0.0
2018-Jul-09 11:58N 41°12' W 008°41'0 0.0
2018-Jul-09 11:25N 41°12' W 008°41'0 0.0
2018-Jul-09 10:55N 41°12' W 008°41'0 0.0
2018-Jul-09 10:28N 41°12' W 008°41'0 0.0
2018-Jul-09 09:13N 41°12' W 008°41'0 0.0
2018-Jul-09 08:34N 41°12' W 008°41'0 0.0
2018-Jul-09 08:10N 41°12' W 008°41'0 0.0
2018-Jul-09 07:46N 41°12' W 008°41'0 0.0
2018-Jul-09 07:25N 41°12' W 008°41'0 0.0
2018-Jul-09 06:58N 41°12' W 008°41'0 0.0
2018-Jul-09 06:28N 41°12' W 008°41'0 0.0
2018-Jul-09 05:58N 41°12' W 008°41'0 0.0
2018-Jul-09 05:28N 41°12' W 008°41'0 0.0
2018-Jul-09 04:58N 41°12' W 008°41'0 0.0
2018-Jul-09 04:28N 41°12' W 008°41'0 0.0
2018-Jul-09 03:55N 41°12' W 008°41'0 0.0
2018-Jul-09 03:28N 41°12' W 008°41'0 0.0
2018-Jul-09 02:58N 41°12' W 008°41'0 0.0
2018-Jul-09 02:28N 41°12' W 008°41'0 0.0
2018-Jul-09 01:55N 41°12' W 008°41'0 0.0
2018-Jul-09 01:19N 41°12' W 008°41'0 0.0
2018-Jul-09 00:58N 41°12' W 008°41'0 0.0
2018-Jul-09 00:25N 41°12' W 008°41'0 0.0
2018-Jul-08 23:55N 41°12' W 008°41'0 0.0
2018-Jul-08 23:22N 41°12' W 008°41'0 0.0
2018-Jul-08 22:37N 41°12' W 008°41'0 0.0
2018-Jul-08 22:28N 41°12' W 008°41'0 0.0
2018-Jul-08 21:52N 41°12' W 008°41'0 0.0
2018-Jul-08 21:28N 41°12' W 008°41'0 0.0
2018-Jul-08 20:55N 41°12' W 008°41'0 0.0
2018-Jul-08 20:16N 41°12' W 008°41'0 0.0
2018-Jul-08 19:52N 41°12' W 008°41'0 0.0
2018-Jul-08 19:25N 41°12' W 008°41'0 0.0
2018-Jul-08 18:58N 41°12' W 008°41'0 0.0
2018-Jul-08 18:28N 41°12' W 008°41'0 0.0
2018-Jul-08 17:58N 41°12' W 008°41'0 0.0
2018-Jul-08 17:07N 41°12' W 008°41'0 0.0
2018-Jul-08 16:49N 41°12' W 008°41'0 0.0
2018-Jul-08 16:25N 41°12' W 008°41'0 0.0
2018-Jul-08 15:55N 41°12' W 008°41'0 0.0
2018-Jul-08 15:22N 41°12' W 008°41'0 0.0
2018-Jul-08 14:58N 41°12' W 008°41'0 0.0
2018-Jul-08 14:22N 41°12' W 008°41'0 0.0
2018-Jul-08 13:49N 41°12' W 008°41'0 0.0
2018-Jul-08 13:28N 41°12' W 008°41'0 0.0
2018-Jul-08 13:01N 41°12' W 008°41'0 0.0
2018-Jul-08 12:31N 41°12' W 008°41'0 0.0
2018-Jul-08 11:57N 41°12' W 008°41'0 0.0
2018-Jul-08 11:31N 41°12' W 008°41'0 0.0
2018-Jul-08 10:58N 41°12' W 008°41'0 0.0
2018-Jul-08 10:21N 41°12' W 008°41'0 0.0
2018-Jul-08 10:00N 41°12' W 008°41'0 0.0
2018-Jul-08 09:24N 41°12' W 008°41'0 0.0
2018-Jul-08 08:57N 41°12' W 008°41'0 0.0
2018-Jul-08 08:30N 41°12' W 008°41'0 0.0
2018-Jul-08 08:00N 41°12' W 008°41'0 0.0
2018-Jul-08 07:30N 41°12' W 008°41'0 0.0
2018-Jul-08 07:00N 41°12' W 008°41'0 0.0
2018-Jul-08 06:09N 41°12' W 008°41'0 0.0
2018-Jul-08 06:00N 41°12' W 008°41'0 0.0
2018-Jul-08 05:24N 41°12' W 008°41'0 0.0
2018-Jul-08 05:00N 41°12' W 008°41'0 0.0
2018-Jul-08 04:27N 41°12' W 008°41'0 0.0
2018-Jul-08 03:57N 41°12' W 008°41'0 0.0
2018-Jul-08 03:30N 41°12' W 008°41'0 0.0
2018-Jul-08 02:51N 41°12' W 008°41'0 0.0
2018-Jul-08 02:21N 41°12' W 008°41'0 0.0
2018-Jul-08 01:57N 41°12' W 008°41'0 0.0
2018-Jul-08 01:30N 41°12' W 008°41'0 0.0
2018-Jul-08 01:00N 41°12' W 008°41'0 0.0
2018-Jul-08 00:27N 41°12' W 008°41'0 0.0
2018-Jul-07 23:57N 41°12' W 008°41'0 0.0
2018-Jul-07 23:27N 41°12' W 008°41'0 0.0
2018-Jul-07 22:54N 41°12' W 008°41'0 0.0
2018-Jul-07 22:30N 41°12' W 008°41'0 0.0
2018-Jul-07 22:00N 41°12' W 008°41'0 0.0
2018-Jul-07 21:30N 41°12' W 008°41'0 0.0
2018-Jul-07 21:00N 41°12' W 008°41'0 0.0
2018-Jul-07 20:30N 41°12' W 008°41'0 0.0
2018-Jul-07 20:00N 41°12' W 008°41'0 0.0
2018-Jul-07 17:33N 41°12' W 008°41'0 0.0
2018-Jul-07 17:24N 41°12' W 008°41'0 0.0
2018-Jul-07 17:00N 41°12' W 008°41'0 0.0
2018-Jul-07 16:27N 41°12' W 008°41'0 0.0
2018-Jul-07 16:00N 41°12' W 008°41'0 0.0
2018-Jul-07 15:27N 41°12' W 008°41'0 0.0
2018-Jul-07 14:39N 41°12' W 008°41'0 0.0
2018-Jul-07 14:29N 41°12' W 008°41'0 1.0
2018-Jul-07 14:00N 41°11' W 008°42'3 5.2
2018-Jul-07 13:30N 41°09' W 008°44'1 2.2
2018-Jul-07 13:01N 41°09' W 008°45'1 0.1
2018-Jul-07 03:42N 41°09' W 008°46'0 0.0
2018-Jul-07 03:30N 41°09' W 008°46'0 0.0
2018-Jul-07 02:54N 41°09' W 008°46'0 0.1
2018-Jul-07 02:30N 41°09' W 008°46'0 0.0
2018-Jul-07 01:57N 41°09' W 008°46'0 0.0
2018-Jul-07 00:39N 41°09' W 008°46'0 0.0
2018-Jul-07 00:06N 41°09' W 008°46'0 0.0
2018-Jul-06 23:48N 41°09' W 008°46'0 0.0
2018-Jul-06 23:30N 41°09' W 008°46'0 0.0
2018-Jul-06 23:00N 41°09' W 008°46'0 0.0
2018-Jul-06 22:14N 41°09' W 008°46'0 0.0
2018-Jul-06 20:41N 41°09' W 008°46'0 0.0
2018-Jul-06 13:17N 41°09' W 008°46'0 0.0
2018-Jul-06 12:56N 41°09' W 008°46'0 0.1
2018-Jul-06 11:59N 41°09' W 008°46'0 0.0
2018-Jul-06 11:23N 41°09' W 008°46'0 0.0
2018-Jul-06 10:53N 41°09' W 008°46'1 3.1
2018-Jul-06 10:30N 41°10' W 008°46'  

Dump ship's entire track history